Time;durP1;ratioP1;P1;durP2;ratioP2;P2;SDS_P1;SDS_P2;PMS_P1;PMS_P2;Temp;Humidity;BMP_temperature;BMP_pressure;BME280_temperature;BME280_humidity;BME280_pressure;Samples;Min_cycle;Max_cycle;Signal;HPM_P1;HPM_P2
2023/05/11 00:02:07;;;;;;;0.90;0.90;;;;;;;;;;4992962;28;20182;-49
2023/05/11 00:04:33;;;;;;;0.93;0.93;;;;;;;;;;4994773;28;20569;-49
2023/05/11 00:06:59;;;;;;;1.20;1.00;;;;;;;;;;4997300;28;20181;-48
2023/05/11 00:09:25;;;;;;;1.20;1.10;;;;;;;;;;4996002;28;20216;-49
2023/05/11 00:11:51;;;;;;;1.05;0.95;;;;;;;;;;4996538;28;20260;-49
2023/05/11 00:14:17;;;;;;;1.10;1.00;;;;;;;;;;4997695;28;20575;-49
2023/05/11 00:16:43;;;;;;;1.38;1.05;;;;;;;;;;4997719;28;20181;-49
2023/05/11 00:19:09;;;;;;;1.10;1.00;;;;;;;;;;4996120;28;20181;-49
2023/05/11 00:21:35;;;;;;;0.80;0.80;;;;;;;;;;4997470;28;20193;-49
2023/05/11 00:24:01;;;;;;;1.30;1.20;;;;;;;;;;4995917;28;20614;-49
2023/05/11 00:26:27;;;;;;;1.17;1.08;;;;;;;;;;4997257;28;20189;-49
2023/05/11 00:28:53;;;;;;;1.30;1.20;;;;;;;;;;4996148;28;20271;-48
2023/05/11 00:31:19;;;;;;;1.13;1.13;;;;;;;;;;4997484;28;20185;-48
2023/05/11 00:33:45;;;;;;;1.15;1.10;;;;;;;;;;4997190;28;20189;-49
2023/05/11 00:36:11;;;;;;;1.20;1.10;;;;;;;;;;4996623;28;20185;-49
2023/05/11 00:38:39;;;;;;;0.88;0.88;;;;;;;;;;4995326;28;20228;-49
2023/05/11 00:41:05;;;;;;;1.20;1.10;;;;;;;;;;4996398;28;20178;-49
2023/05/11 00:43:31;;;;;;;1.20;1.10;;;;;;;;;;4996332;28;20192;-48
2023/05/11 00:45:57;;;;;;;1.10;1.00;;;;;;;;;;4996938;28;20185;-48
2023/05/11 00:48:23;;;;;;;0.90;0.90;;;;;;;;;;4996343;28;20212;-48
2023/05/11 00:50:49;;;;;;;2.00;1.48;;;;;;;;;;4995305;28;20200;-48
2023/05/11 00:53:15;;;;;;;0.93;0.93;;;;;;;;;;4995302;28;20567;-50
2023/05/11 00:55:41;;;;;;;1.20;1.10;;;;;;;;;;4997014;28;20200;-49
2023/05/11 00:58:07;;;;;;;1.20;1.10;;;;;;;;;;4996135;28;20217;-49
2023/05/11 01:00:33;;;;;;;0.80;0.80;;;;;;;;;;4995928;28;20188;-50
2023/05/11 01:03:00;;;;;;;0.95;0.95;;;;;;;;;;4996618;28;20257;-49
2023/05/11 01:05:31;;;;;;;1.48;1.00;;;;;;;;;;4980054;28;20272;-49
2023/05/11 01:08:04;;;;;;;1.13;1.02;;;;;;;;;;4996716;28;20182;-48
2023/05/11 01:10:33;;;;;;;0.80;0.80;;;;;;;;;;4994966;28;20192;-49
2023/05/11 01:13:14;;;;;;;0.70;0.70;;;;;;;;;;4995726;28;20215;-49
2023/05/11 01:15:56;;;;;;;1.23;1.13;;;;;;;;;;4996567;28;20572;-49
2023/05/11 01:18:27;;;;;;;1.00;1.00;;;;;;;;;;4994660;28;20299;-49
2023/05/11 01:20:56;;;;;;;1.20;1.10;;;;;;;;;;4995629;28;20235;-49
2023/05/11 01:23:28;;;;;;;1.08;0.98;;;;;;;;;;4996405;28;20341;-49
2023/05/11 01:26:14;;;;;;;0.80;0.80;;;;;;;;;;4995227;28;20583;-49
2023/05/11 01:28:40;;;;;;;0.98;0.90;;;;;;;;;;4994682;28;20556;-49
2023/05/11 01:31:08;;;;;;;1.25;0.95;;;;;;;;;;4996782;28;20185;-49
2023/05/11 01:33:36;;;;;;;0.75;0.75;;;;;;;;;;4994364;28;20185;-49
2023/05/11 01:36:05;;;;;;;0.75;0.75;;;;;;;;;;4996539;28;20625;-49
2023/05/11 01:38:33;;;;;;;0.75;0.75;;;;;;;;;;4993609;28;20213;-49
2023/05/11 01:41:00;;;;;;;0.70;0.70;;;;;;;;;;4996031;28;20469;-49
2023/05/11 01:43:27;;;;;;;1.20;1.10;;;;;;;;;;4995889;28;20177;-50
2023/05/11 01:45:55;;;;;;;1.33;1.00;;;;;;;;;;4994554;28;20181;-49
2023/05/11 01:48:23;;;;;;;0.98;0.93;;;;;;;;;;4995632;28;20210;-49
2023/05/11 01:50:49;;;;;;;1.02;0.95;;;;;;;;;;4995159;28;20604;-49
2023/05/11 01:53:16;;;;;;;1.67;0.88;;;;;;;;;;4995035;28;20228;-49
2023/05/11 01:55:43;;;;;;;0.80;0.80;;;;;;;;;;4996007;28;20189;-49
2023/05/11 01:58:10;;;;;;;1.10;1.10;;;;;;;;;;4994628;28;20278;-49
2023/05/11 02:00:36;;;;;;;0.70;0.70;;;;;;;;;;4994416;28;20217;-49
2023/05/11 02:03:03;;;;;;;1.00;0.82;;;;;;;;;;4995324;28;20670;-49
2023/05/11 02:05:29;;;;;;;1.17;0.90;;;;;;;;;;4995088;28;20828;-49
2023/05/11 02:07:56;;;;;;;1.05;0.95;;;;;;;;;;4995297;28;20180;-49
2023/05/11 02:10:23;;;;;;;1.00;1.00;;;;;;;;;;4995474;28;20192;-48
2023/05/11 02:12:51;;;;;;;0.98;0.98;;;;;;;;;;4995091;28;20678;-48
2023/05/11 02:15:18;;;;;;;0.75;0.75;;;;;;;;;;4994193;28;20185;-49
2023/05/11 02:17:44;;;;;;;0.70;0.70;;;;;;;;;;4994487;28;20215;-49
2023/05/11 02:20:10;;;;;;;0.88;0.88;;;;;;;;;;4977526;28;20185;-49
2023/05/11 02:22:36;;;;;;;1.17;1.13;;;;;;;;;;4994524;28;20561;-49
2023/05/11 02:25:04;;;;;;;0.90;0.90;;;;;;;;;;4994886;28;20268;-49
2023/05/11 02:27:31;;;;;;;1.17;1.08;;;;;;;;;;4994477;28;20209;-49
2023/05/11 02:29:57;;;;;;;0.80;0.80;;;;;;;;;;4993671;28;20212;-49
2023/05/11 02:32:24;;;;;;;0.80;0.80;;;;;;;;;;4994590;28;20213;-49
2023/05/11 02:34:55;;;;;;;1.08;0.90;;;;;;;;;;4995268;28;20508;-49
2023/05/11 02:37:23;;;;;;;0.80;0.80;;;;;;;;;;4992946;28;20209;-49
2023/05/11 02:39:52;;;;;;;0.80;0.80;;;;;;;;;;4986630;28;20189;-49
2023/05/11 02:42:20;;;;;;;0.70;0.70;;;;;;;;;;4993585;28;20177;-49
2023/05/11 02:44:57;;;;;;;0.80;0.80;;;;;;;;;;4994191;28;20231;-49
2023/05/11 02:47:26;;;;;;;0.90;0.90;;;;;;;;;;4993023;28;20227;-49
2023/05/11 02:49:54;;;;;;;1.00;0.90;;;;;;;;;;4993715;28;20264;-49
2023/05/11 02:52:22;;;;;;;0.90;0.70;;;;;;;;;;4995148;28;20193;-49
2023/05/11 02:54:49;;;;;;;0.80;0.80;;;;;;;;;;4993676;28;20192;-49
2023/05/11 02:57:17;;;;;;;0.77;0.77;;;;;;;;;;4994707;28;20220;-49
2023/05/11 02:59:45;;;;;;;0.90;0.90;;;;;;;;;;4993144;28;20215;-49
2023/05/11 03:02:11;;;;;;;0.98;0.93;;;;;;;;;;4993935;28;20173;-50
2023/05/11 03:04:38;;;;;;;0.70;0.70;;;;;;;;;;4994410;28;20563;-49
2023/05/11 03:07:04;;;;;;;0.90;0.90;;;;;;;;;;4978081;28;20177;-49
2023/05/11 03:09:30;;;;;;;0.90;0.90;;;;;;;;;;4992747;28;20188;-49
2023/05/11 03:11:57;;;;;;;0.80;0.80;;;;;;;;;;4993026;28;20185;-49
2023/05/11 03:14:23;;;;;;;0.60;0.60;;;;;;;;;;4994077;28;20219;-49
2023/05/11 03:16:49;;;;;;;0.80;0.70;;;;;;;;;;4993011;28;20217;-49
2023/05/11 03:19:15;;;;;;;2.33;0.98;;;;;;;;;;4993894;28;20448;-49
2023/05/11 03:21:42;;;;;;;0.80;0.80;;;;;;;;;;4993863;28;20177;-49
2023/05/11 03:24:08;;;;;;;0.80;0.80;;;;;;;;;;4994242;28;20228;-49
2023/05/11 03:26:35;;;;;;;0.80;0.80;;;;;;;;;;4993601;28;20187;-50
2023/05/11 03:29:02;;;;;;;0.75;0.73;;;;;;;;;;4993014;28;20643;-50
2023/05/11 03:31:28;;;;;;;0.80;0.80;;;;;;;;;;4994812;28;20191;-49
2023/05/11 03:33:54;;;;;;;0.88;0.77;;;;;;;;;;4993778;28;20227;-49
2023/05/11 03:36:21;;;;;;;1.95;0.80;;;;;;;;;;4993796;28;20463;-50
2023/05/11 03:38:48;;;;;;;4.90;1.60;;;;;;;;;;4993718;28;20259;-49
2023/05/11 03:41:16;;;;;;;12.05;3.10;;;;;;;;;;4997702;28;20248;-49
2023/05/11 03:43:45;;;;;;;8.18;2.90;;;;;;;;;;4991025;28;20169;-49
2023/05/11 03:46:11;;;;;;;12.63;3.47;;;;;;;;;;4997698;28;20192;-49
2023/05/11 03:48:39;;;;;;;15.38;4.07;;;;;;;;;;4997188;28;20181;-49
2023/05/11 03:51:05;;;;;;;17.48;4.30;;;;;;;;;;4996583;28;20196;-48
2023/05/11 03:53:31;;;;;;;16.95;4.20;;;;;;;;;;4997396;28;20192;-48
2023/05/11 03:55:57;;;;;;;14.13;3.97;;;;;;;;;;4997319;28;20484;-48
2023/05/11 03:58:23;;;;;;;19.70;4.55;;;;;;;;;;4997813;28;20217;-49
2023/05/11 04:00:49;;;;;;;15.90;4.57;;;;;;;;;;5000118;28;20533;-49
2023/05/11 04:03:15;;;;;;;13.85;4.30;;;;;;;;;;5000282;28;20216;-49
2023/05/11 04:05:41;;;;;;;24.05;4.97;;;;;;;;;;5000830;28;20241;-50
2023/05/11 04:08:07;;;;;;;21.80;5.47;;;;;;;;;;4999992;28;20568;-50
2023/05/11 04:10:33;;;;;;;20.38;5.60;;;;;;;;;;4999974;28;20265;-50
2023/05/11 04:12:59;;;;;;;21.05;5.50;;;;;;;;;;4999621;28;20259;-49
2023/05/11 04:15:25;;;;;;;21.23;5.78;;;;;;;;;;4999812;28;20177;-48
2023/05/11 04:17:50;;;;;;;20.20;5.90;;;;;;;;;;4982883;28;20208;-49
2023/05/11 04:20:16;;;;;;;17.92;5.72;;;;;;;;;;4999705;28;20232;-49
2023/05/11 04:22:42;;;;;;;21.25;7.47;;;;;;;;;;4999857;28;20235;-49
2023/05/11 04:25:08;;;;;;;22.10;7.20;;;;;;;;;;5000131;28;20172;-49
2023/05/11 04:27:34;;;;;;;23.80;7.05;;;;;;;;;;4999773;28;20506;-49
2023/05/11 04:30:01;;;;;;;19.35;6.68;;;;;;;;;;4999395;28;20256;-49
2023/05/11 04:32:27;;;;;;;25.20;6.57;;;;;;;;;;4999802;28;20211;-49
2023/05/11 04:34:53;;;;;;;26.38;7.03;;;;;;;;;;4999662;28;20188;-49
2023/05/11 04:37:19;;;;;;;24.17;7.20;;;;;;;;;;4999359;28;20197;-49
2023/05/11 04:39:45;;;;;;;25.75;6.80;;;;;;;;;;4982205;28;20578;-49
2023/05/11 04:42:11;;;;;;;25.08;6.90;;;;;;;;;;4999459;28;20166;-49
2023/05/11 04:44:38;;;;;;;27.00;7.25;;;;;;;;;;4999540;28;20173;-49
2023/05/11 04:47:04;;;;;;;24.35;7.55;;;;;;;;;;4999472;28;20170;-49
2023/05/11 04:49:30;;;;;;;18.92;6.72;;;;;;;;;;4998891;28;20172;-49
2023/05/11 04:51:56;;;;;;;24.13;6.97;;;;;;;;;;4998495;28;20161;-49
2023/05/11 04:54:21;;;;;;;18.63;6.47;;;;;;;;;;4999303;28;20165;-49
2023/05/11 04:56:47;;;;;;;23.40;7.35;;;;;;;;;;4999189;28;20186;-49
2023/05/11 04:59:13;;;;;;;20.52;7.45;;;;;;;;;;4995137;28;20212;-49
2023/05/11 05:01:39;;;;;;;21.35;7.07;;;;;;;;;;4996707;28;20429;-49
2023/05/11 05:04:05;;;;;;;19.52;7.47;;;;;;;;;;4996111;28;20185;-48
2023/05/11 05:06:31;;;;;;;20.58;7.68;;;;;;;;;;4995908;28;20193;-48
2023/05/11 05:08:57;;;;;;;22.33;6.68;;;;;;;;;;4994960;28;20189;-48
2023/05/11 05:11:23;;;;;;;18.25;6.88;;;;;;;;;;4995180;28;20565;-48
2023/05/11 05:13:49;;;;;;;23.58;7.07;;;;;;;;;;4996187;28;20177;-49
2023/05/11 05:16:15;;;;;;;22.77;6.82;;;;;;;;;;4995491;28;20320;-49
2023/05/11 05:18:41;;;;;;;21.55;6.70;;;;;;;;;;4993465;28;20295;-49
2023/05/11 05:21:07;;;;;;;21.30;7.10;;;;;;;;;;4995414;28;20183;-49
2023/05/11 05:23:33;;;;;;;19.00;7.18;;;;;;;;;;4978335;28;20264;-49
2023/05/11 05:25:59;;;;;;;20.75;6.93;;;;;;;;;;4995730;28;20213;-49
2023/05/11 05:28:25;;;;;;;19.35;7.13;;;;;;;;;;4993825;28;20219;-49
2023/05/11 05:30:50;;;;;;;20.00;7.15;;;;;;;;;;4992186;28;20189;-49
2023/05/11 05:33:16;;;;;;;20.33;7.07;;;;;;;;;;4993072;28;20189;-49
2023/05/11 05:35:42;;;;;;;18.95;6.72;;;;;;;;;;4995368;28;20430;-49
2023/05/11 05:38:08;;;;;;;20.08;6.22;;;;;;;;;;4994212;28;20197;-49
2023/05/11 05:40:36;;;;;;;20.50;7.07;;;;;;;;;;4994871;28;20178;-49
2023/05/11 05:43:02;;;;;;;19.50;7.03;;;;;;;;;;4995773;28;20549;-49
2023/05/11 05:45:28;;;;;;;18.40;6.80;;;;;;;;;;4993892;28;20252;-49
2023/05/11 05:47:54;;;;;;;18.55;6.43;;;;;;;;;;4995442;28;20241;-49
2023/05/11 05:50:20;;;;;;;18.67;7.03;;;;;;;;;;4994689;28;20181;-49
2023/05/11 05:52:46;;;;;;;15.38;6.30;;;;;;;;;;4994725;28;20613;-49
2023/05/11 05:55:12;;;;;;;21.63;7.22;;;;;;;;;;4995692;28;20415;-49
2023/05/11 05:57:37;;;;;;;18.88;6.70;;;;;;;;;;4995054;28;20259;-49
2023/05/11 06:00:04;;;;;;;23.15;7.13;;;;;;;;;;4994700;28;20196;-49
2023/05/11 06:02:30;;;;;;;19.67;7.38;;;;;;;;;;4994057;28;20177;-49
2023/05/11 06:04:56;;;;;;;14.98;6.45;;;;;;;;;;4995944;28;20442;-50
2023/05/11 06:07:21;;;;;;;21.52;6.25;;;;;;;;;;4993520;28;20189;-49
2023/05/11 06:09:47;;;;;;;18.63;7.05;;;;;;;;;;4994718;28;20260;-49
2023/05/11 06:12:13;;;;;;;15.65;6.18;;;;;;;;;;4995044;28;20196;-49
2023/05/11 06:14:40;;;;;;;18.50;6.55;;;;;;;;;;4992782;28;20190;-50
2023/05/11 06:17:06;;;;;;;23.55;6.68;;;;;;;;;;4995163;28;20228;-49
2023/05/11 06:19:32;;;;;;;16.52;6.13;;;;;;;;;;4993757;28;20451;-49
2023/05/11 06:21:58;;;;;;;13.77;5.75;;;;;;;;;;4995265;28;20181;-49
2023/05/11 06:24:24;;;;;;;17.23;6.53;;;;;;;;;;4994214;28;20189;-49
2023/05/11 06:26:50;;;;;;;15.65;6.28;;;;;;;;;;4993906;28;20454;-50
2023/05/11 06:29:16;;;;;;;16.67;6.47;;;;;;;;;;4993395;28;20185;-50
2023/05/11 06:31:42;;;;;;;16.83;6.57;;;;;;;;;;4994346;28;20190;-50
2023/05/11 06:34:08;;;;;;;11.88;5.80;;;;;;;;;;4994627;28;20607;-49
2023/05/11 06:36:34;;;;;;;17.85;6.28;;;;;;;;;;4994608;28;20300;-50
2023/05/11 06:39:00;;;;;;;18.90;6.28;;;;;;;;;;4993323;28;20295;-50
2023/05/11 06:41:26;;;;;;;13.05;5.25;;;;;;;;;;4993437;28;20259;-49
2023/05/11 06:43:52;;;;;;;14.98;5.88;;;;;;;;;;4994246;28;20299;-49
2023/05/11 06:46:18;;;;;;;14.38;5.53;;;;;;;;;;4994259;28;20280;-49
2023/05/11 06:48:43;;;;;;;13.85;5.85;;;;;;;;;;4993663;28;20200;-49
2023/05/11 06:51:10;;;;;;;13.05;5.90;;;;;;;;;;4993266;28;20189;-49
2023/05/11 06:53:36;;;;;;;16.35;6.22;;;;;;;;;;4976224;28;20332;-50
2023/05/11 06:56:02;;;;;;;13.75;5.65;;;;;;;;;;4993641;28;20189;-50
2023/05/11 06:58:28;;;;;;;15.07;5.72;;;;;;;;;;4993073;28;20239;-49
2023/05/11 07:00:55;;;;;;;13.30;5.88;;;;;;;;;;4994074;28;20181;-49
2023/05/11 07:03:21;;;;;;;11.57;5.65;;;;;;;;;;4994329;28;20428;-49
2023/05/11 07:05:47;;;;;;;13.35;5.68;;;;;;;;;;4976808;28;20177;-49
2023/05/11 07:08:13;;;;;;;11.90;5.38;;;;;;;;;;4993643;28;20185;-50
2023/05/11 07:10:40;;;;;;;13.88;5.30;;;;;;;;;;4990899;28;20197;-49
2023/05/11 07:13:06;;;;;;;12.02;5.75;;;;;;;;;;4994334;28;20444;-49
2023/05/11 07:15:32;;;;;;;10.88;4.88;;;;;;;;;;4998307;28;20204;-49
2023/05/11 07:18:00;;;;;;;14.35;5.60;;;;;;;;;;4997523;28;20201;-49
2023/05/11 07:20:25;;;;;;;11.02;5.13;;;;;;;;;;4997799;28;20235;-49
2023/05/11 07:22:51;;;;;;;10.52;4.88;;;;;;;;;;4995197;28;20537;-49
2023/05/11 07:25:17;;;;;;;12.70;5.10;;;;;;;;;;4997563;28;20189;-49
2023/05/11 07:27:43;;;;;;;14.25;5.70;;;;;;;;;;4998052;28;20528;-49
2023/05/11 07:30:09;;;;;;;11.57;5.18;;;;;;;;;;4996591;28;20609;-49
2023/05/11 07:32:35;;;;;;;11.55;4.90;;;;;;;;;;4996831;28;20200;-50
2023/05/11 07:35:01;;;;;;;12.05;5.32;;;;;;;;;;4997346;28;20185;-49
2023/05/11 07:37:27;;;;;;;11.85;4.82;;;;;;;;;;4997083;28;20568;-49
2023/05/11 07:39:53;;;;;;;11.68;4.63;;;;;;;;;;4997314;28;20288;-50
2023/05/11 07:42:19;;;;;;;12.00;4.80;;;;;;;;;;4998512;28;20182;-50
2023/05/11 07:44:44;;;;;;;12.43;4.57;;;;;;;;;;4998280;28;20508;-50
2023/05/11 07:47:12;;;;;;;11.50;5.22;;;;;;;;;;4997409;28;20177;-50
2023/05/11 07:49:38;;;;;;;11.48;5.22;;;;;;;;;;4997693;28;20185;-50
2023/05/11 07:52:03;;;;;;;11.20;5.13;;;;;;;;;;4997869;28;20184;-49
2023/05/11 07:54:29;;;;;;;10.43;4.50;;;;;;;;;;4997856;28;20181;-50
2023/05/11 07:56:55;;;;;;;11.40;4.43;;;;;;;;;;4998137;28;20465;-49
2023/05/11 07:59:21;;;;;;;11.50;4.40;;;;;;;;;;4997444;28;20319;-50
2023/05/11 08:01:47;;;;;;;8.52;4.20;;;;;;;;;;4997475;28;20435;-49
2023/05/11 08:04:13;;;;;;;8.43;4.20;;;;;;;;;;4997995;28;20173;-50
2023/05/11 08:06:39;;;;;;;8.30;4.07;;;;;;;;;;4980761;28;20181;-49
2023/05/11 08:09:05;;;;;;;8.93;4.32;;;;;;;;;;4996621;28;20186;-49
2023/05/11 08:11:31;;;;;;;9.27;4.53;;;;;;;;;;4997672;28;20181;-49
2023/05/11 08:13:57;;;;;;;11.32;4.40;;;;;;;;;;4997989;28;20187;-49
2023/05/11 08:16:23;;;;;;;9.57;3.85;;;;;;;;;;4997590;28;20185;-48
2023/05/11 08:18:49;;;;;;;8.48;4.20;;;;;;;;;;4997222;28;20295;-49
2023/05/11 08:21:15;;;;;;;8.45;4.05;;;;;;;;;;4997437;28;20452;-49
2023/05/11 08:23:40;;;;;;;9.35;4.22;;;;;;;;;;4997132;28;20185;-50
2023/05/11 08:26:06;;;;;;;8.05;3.97;;;;;;;;;;4996352;28;20428;-48
2023/05/11 08:28:32;;;;;;;8.40;3.67;;;;;;;;;;4996752;28;20257;-50
2023/05/11 08:30:58;;;;;;;9.48;4.20;;;;;;;;;;4997509;28;20185;-48
2023/05/11 08:33:26;;;;;;;9.70;3.42;;;;;;;;;;4997294;28;20247;-49
2023/05/11 08:35:52;;;;;;;7.78;3.88;;;;;;;;;;4997356;28;20239;-50
2023/05/11 08:38:18;;;;;;;7.68;3.92;;;;;;;;;;4995458;28;20640;-50
2023/05/11 08:40:47;;;;;;;7.93;3.85;;;;;;;;;;4995017;28;20244;-50
2023/05/11 08:43:13;;;;;;;8.75;3.92;;;;;;;;;;4996504;28;20178;-49
2023/05/11 08:45:42;;;;;;;8.88;4.03;;;;;;;;;;4997440;28;20181;-49
2023/05/11 08:48:08;;;;;;;6.82;3.40;;;;;;;;;;4994887;28;20185;-50
2023/05/11 08:50:34;;;;;;;7.43;3.50;;;;;;;;;;4995519;28;20256;-49
2023/05/11 08:52:59;;;;;;;7.82;3.17;;;;;;;;;;4995716;28;20193;-50
2023/05/11 08:55:26;;;;;;;7.25;3.72;;;;;;;;;;4996377;28;20189;-49
2023/05/11 08:57:52;;;;;;;5.30;3.05;;;;;;;;;;4996766;28;20608;-49
2023/05/11 09:00:19;;;;;;;9.75;4.03;;;;;;;;;;4992450;28;20258;-49
2023/05/11 09:02:45;;;;;;;8.05;3.35;;;;;;;;;;4994897;28;20418;-46
2023/05/11 09:05:12;;;;;;;6.50;3.38;;;;;;;;;;4994924;28;20174;-48
2023/05/11 09:07:39;;;;;;;6.53;3.30;;;;;;;;;;4995323;28;20239;-49
2023/05/11 09:10:05;;;;;;;6.55;3.90;;;;;;;;;;4996947;28;20173;-50
2023/05/11 09:12:31;;;;;;;7.80;3.42;;;;;;;;;;4995831;28;20185;-49
2023/05/11 09:14:57;;;;;;;6.47;3.42;;;;;;;;;;4996165;28;20196;-49
2023/05/11 09:17:25;;;;;;;5.20;2.95;;;;;;;;;;4995237;28;20339;-49
2023/05/11 09:19:58;;;;;;;6.60;3.20;;;;;;;;;;4994792;28;20422;-48
2023/05/11 09:22:24;;;;;;;5.32;3.15;;;;;;;;;;4994594;28;20240;-49
2023/05/11 09:24:50;;;;;;;8.75;3.42;;;;;;;;;;4996238;28;20209;-49
2023/05/11 09:27:16;;;;;;;6.15;3.35;;;;;;;;;;4995560;28;20195;-50
2023/05/11 09:29:42;;;;;;;6.32;3.17;;;;;;;;;;4995461;28;20271;-49
2023/05/11 09:32:08;;;;;;;7.95;3.45;;;;;;;;;;4994795;28;20173;-50
2023/05/11 09:34:34;;;;;;;7.18;3.53;;;;;;;;;;4995516;28;20453;-49
2023/05/11 09:37:00;;;;;;;6.10;3.42;;;;;;;;;;4994678;28;20192;-49
2023/05/11 09:39:30;;;;;;;8.65;3.42;;;;;;;;;;4994709;28;20299;-49
2023/05/11 09:42:15;;;;;;;4.85;2.83;;;;;;;;;;4996237;28;20174;-50
2023/05/11 09:44:41;;;;;;;6.00;3.15;;;;;;;;;;4995437;28;20176;-49
2023/05/11 09:47:14;;;;;;;5.13;3.25;;;;;;;;;;4994510;28;20553;-49
2023/05/11 09:49:43;;;;;;;5.40;3.00;;;;;;;;;;4995233;28;20231;-49
2023/05/11 09:52:13;;;;;;;7.82;3.35;;;;;;;;;;4994209;28;20181;-49
2023/05/11 09:54:46;;;;;;;6.65;2.95;;;;;;;;;;4995620;28;20181;-49
2023/05/11 09:57:26;;;;;;;6.93;3.60;;;;;;;;;;4994611;28;20337;-50
2023/05/11 09:59:52;;;;;;;6.85;3.30;;;;;;;;;;4988403;28;20221;-50
2023/05/11 10:02:25;;;;;;;5.30;2.72;;;;;;;;;;4994296;28;20188;-49
2023/05/11 10:04:51;;;;;;;5.53;2.88;;;;;;;;;;4987690;28;20169;-49
2023/05/11 10:07:30;;;;;;;6.82;3.42;;;;;;;;;;4993406;28;20188;-49
2023/05/11 10:09:58;;;;;;;5.07;2.47;;;;;;;;;;4988065;28;20265;-49
2023/05/11 10:12:24;;;;;;;5.90;2.92;;;;;;;;;;4995012;28;20328;-49
2023/05/11 10:14:51;;;;;;;5.65;3.22;;;;;;;;;;4995393;28;20178;-49
2023/05/11 10:17:18;;;;;;;7.00;3.10;;;;;;;;;;4994496;28;20181;-49
2023/05/11 10:19:44;;;;;;;5.35;3.05;;;;;;;;;;4994754;28;20204;-49
2023/05/11 10:22:11;;;;;;;4.63;2.88;;;;;;;;;;4993816;28;20251;-49
2023/05/11 10:24:37;;;;;;;5.93;3.00;;;;;;;;;;4994837;28;20177;-50
2023/05/11 10:27:03;;;;;;;5.38;3.08;;;;;;;;;;4994580;28;20195;-50
2023/05/11 10:29:30;;;;;;;6.40;3.00;;;;;;;;;;4994318;28;20204;-49
2023/05/11 10:31:57;;;;;;;5.10;3.35;;;;;;;;;;4994669;28;20189;-49
2023/05/11 10:34:24;;;;;;;5.72;3.10;;;;;;;;;;4994517;28;20197;-49
2023/05/11 10:36:52;;;;;;;5.22;2.78;;;;;;;;;;4993180;28;20188;-50
2023/05/11 10:39:18;;;;;;;5.03;2.60;;;;;;;;;;4993086;28;20227;-50
2023/05/11 10:42:05;;;;;;;7.25;2.60;;;;;;;;;;4989919;28;20463;-50
2023/05/11 10:44:39;;;;;;;5.10;3.08;;;;;;;;;;4994013;28;20220;-49
2023/05/11 10:47:20;;;;;;;5.00;2.58;;;;;;;;;;4989075;28;20180;-49
2023/05/11 10:49:50;;;;;;;4.50;2.42;;;;;;;;;;4991266;28;20813;-49
2023/05/11 10:52:35;;;;;;;5.30;2.58;;;;;;;;;;4994045;28;20497;-49
2023/05/11 10:55:08;;;;;;;3.50;2.40;;;;;;;;;;4990917;28;20214;-49
2023/05/11 10:57:49;;;;;;;4.50;2.72;;;;;;;;;;4994415;28;20213;-49
2023/05/11 11:00:47;;;;;;;5.10;2.45;;;;;;;;;;4993960;28;20215;-49
2023/05/11 11:03:14;;;;;;;5.82;2.17;;;;;;;;;;4992191;28;20231;-50
2023/05/11 11:05:42;;;;;;;5.97;2.83;;;;;;;;;;4993799;28;20557;-49
2023/05/11 11:08:08;;;;;;;2.65;2.25;;;;;;;;;;4993266;28;20185;-49
2023/05/11 11:10:48;;;;;;;3.70;2.45;;;;;;;;;;4993366;28;20588;-48
2023/05/11 11:13:15;;;;;;;4.30;2.83;;;;;;;;;;4993089;28;20215;-48
2023/05/11 11:15:56;;;;;;;3.75;2.22;;;;;;;;;;4994372;28;20224;-48
2023/05/11 11:18:22;;;;;;;5.55;2.45;;;;;;;;;;4993971;28;20220;-48
2023/05/11 11:20:49;;;;;;;4.68;2.65;;;;;;;;;;4993930;28;20468;-48
2023/05/11 11:23:33;;;;;;;3.55;2.40;;;;;;;;;;4993277;28;20505;-48
2023/05/11 11:25:59;;;;;;;6.07;2.42;;;;;;;;;;4988591;28;20195;-48
2023/05/11 11:28:25;;;;;;;3.83;2.30;;;;;;;;;;4992983;28;20190;-48
2023/05/11 11:31:23;;;;;;;5.10;2.17;;;;;;;;;;4990905;28;20496;-48
2023/05/11 11:33:49;;;;;;;3.28;2.40;;;;;;;;;;4988911;28;20184;-48
2023/05/11 11:36:15;;;;;;;4.43;2.05;;;;;;;;;;4993435;28;20193;-48
2023/05/11 11:38:58;;;;;;;2.72;2.17;;;;;;;;;;4992516;28;20288;-48
2023/05/11 11:41:28;;;;;;;5.47;2.25;;;;;;;;;;4993884;28;20268;-48
2023/05/11 11:43:54;;;;;;;5.88;2.17;;;;;;;;;;4992546;28;20181;-48
2023/05/11 11:46:27;;;;;;;3.80;2.03;;;;;;;;;;4993102;28;20188;-49
2023/05/11 11:49:07;;;;;;;3.08;2.22;;;;;;;;;;4986239;28;20259;-48
2023/05/11 11:51:33;;;;;;;6.15;2.20;;;;;;;;;;4993496;28;20180;-48
2023/05/11 11:53:59;;;;;;;4.03;2.35;;;;;;;;;;4994338;28;20581;-49
2023/05/11 11:56:25;;;;;;;2.95;2.05;;;;;;;;;;4993416;28;20263;-48
2023/05/11 11:58:51;;;;;;;3.92;2.22;;;;;;;;;;4992483;28;20237;-48
2023/05/11 12:01:18;;;;;;;2.50;1.90;;;;;;;;;;4996658;28;20424;-48
2023/05/11 12:03:48;;;;;;;4.55;2.20;;;;;;;;;;4997377;28;20193;-48
2023/05/11 12:06:14;;;;;;;3.83;1.98;;;;;;;;;;4996973;28;20531;-48
2023/05/11 12:08:40;;;;;;;4.70;2.05;;;;;;;;;;4996216;28;20185;-48
2023/05/11 12:11:07;;;;;;;2.58;1.92;;;;;;;;;;4997706;28;20287;-48
2023/05/11 12:13:33;;;;;;;4.15;2.10;;;;;;;;;;4995531;28;20181;-48
2023/05/11 12:16:08;;;;;;;3.65;2.00;;;;;;;;;;4997274;28;20288;-48
2023/05/11 12:18:34;;;;;;;3.35;1.88;;;;;;;;;;4996142;28;20691;-48
2023/05/11 12:21:00;;;;;;;2.35;1.65;;;;;;;;;;4995761;28;20185;-48
2023/05/11 12:23:26;;;;;;;3.35;2.00;;;;;;;;;;4997048;28;20178;-48
2023/05/11 12:26:05;;;;;;;2.20;1.88;;;;;;;;;;4997230;28;20268;-48
2023/05/11 12:28:32;;;;;;;1.92;1.67;;;;;;;;;;4994636;28;20575;-48
2023/05/11 12:30:58;;;;;;;2.67;1.70;;;;;;;;;;4996699;28;20200;-48
2023/05/11 12:33:24;;;;;;;4.60;2.05;;;;;;;;;;4996856;28;20440;-47
2023/05/11 12:35:53;;;;;;;3.25;1.90;;;;;;;;;;4996627;28;20181;-47
2023/05/11 12:38:20;;;;;;;2.78;2.20;;;;;;;;;;4996863;28;20492;-47
2023/05/11 12:40:46;;;;;;;3.00;1.73;;;;;;;;;;4993996;28;20174;-48
2023/05/11 12:43:16;;;;;;;3.38;1.65;;;;;;;;;;4996440;28;20181;-48
2023/05/11 12:45:42;;;;;;;4.88;1.80;;;;;;;;;;4997021;28;20189;-48
2023/05/11 12:48:09;;;;;;;3.15;1.80;;;;;;;;;;4995132;28;20572;-48
2023/05/11 12:50:42;;;;;;;4.03;1.83;;;;;;;;;;4992772;28;20480;-48
2023/05/11 12:53:15;;;;;;;3.55;1.77;;;;;;;;;;4991218;28;20181;-48
2023/05/11 12:55:41;;;;;;;4.57;2.03;;;;;;;;;;4996204;28;20217;-48
2023/05/11 12:58:11;;;;;;;2.15;1.63;;;;;;;;;;4995415;28;20576;-48
2023/05/11 13:00:37;;;;;;;2.72;2.05;;;;;;;;;;4995531;28;20177;-48
2023/05/11 13:03:03;;;;;;;2.75;1.83;;;;;;;;;;4995324;28;20339;-48
2023/05/11 13:05:29;;;;;;;3.78;1.85;;;;;;;;;;4995857;28;20256;-48
2023/05/11 13:08:03;;;;;;;2.65;1.70;;;;;;;;;;4995063;28;20246;-48
2023/05/11 13:10:29;;;;;;;2.03;1.70;;;;;;;;;;4995716;28;20553;-48
2023/05/11 13:12:55;;;;;;;3.92;1.60;;;;;;;;;;4995047;28;20192;-48
2023/05/11 13:15:23;;;;;;;2.38;1.40;;;;;;;;;;4995933;28;20197;-48
2023/05/11 13:17:55;;;;;;;2.67;1.65;;;;;;;;;;4995602;28;20212;-48
2023/05/11 13:20:23;;;;;;;2.67;1.70;;;;;;;;;;4994936;28;20557;-48
2023/05/11 13:22:49;;;;;;;3.22;1.42;;;;;;;;;;4996011;28;20191;-48
2023/05/11 13:25:16;;;;;;;3.25;2.10;;;;;;;;;;4995659;28;20445;-48
2023/05/11 13:27:42;;;;;;;2.13;1.70;;;;;;;;;;4995834;28;20211;-48
2023/05/11 13:30:08;;;;;;;3.63;1.80;;;;;;;;;;4996586;28;20177;-48
2023/05/11 13:32:35;;;;;;;2.20;1.60;;;;;;;;;;4989963;28;20178;-48
2023/05/11 13:35:02;;;;;;;2.13;1.83;;;;;;;;;;4995145;28;20212;-48
2023/05/11 13:37:28;;;;;;;3.55;1.63;;;;;;;;;;4994472;28;20477;-48
2023/05/11 13:39:54;;;;;;;3.40;1.73;;;;;;;;;;4994993;28;20207;-48
2023/05/11 13:42:20;;;;;;;2.40;1.75;;;;;;;;;;4995992;28;20200;-48
2023/05/11 13:44:46;;;;;;;4.00;1.70;;;;;;;;;;4994359;28;20473;-48
2023/05/11 13:47:12;;;;;;;2.28;1.63;;;;;;;;;;4994432;28;20223;-48
2023/05/11 13:49:38;;;;;;;1.77;1.40;;;;;;;;;;4994021;28;20249;-48
2023/05/11 13:52:04;;;;;;;2.13;1.77;;;;;;;;;;4995923;28;20196;-48
2023/05/11 13:54:33;;;;;;;2.60;1.73;;;;;;;;;;4995039;28;20239;-48
2023/05/11 13:56:59;;;;;;;1.50;1.40;;;;;;;;;;4993416;28;20196;-48
2023/05/11 13:59:25;;;;;;;2.10;1.60;;;;;;;;;;4993779;28;20246;-48
2023/05/11 14:01:51;;;;;;;1.60;1.50;;;;;;;;;;4994504;28;20193;-48
2023/05/11 14:04:18;;;;;;;3.25;1.70;;;;;;;;;;4994063;28;20181;-48
2023/05/11 14:06:44;;;;;;;2.00;1.55;;;;;;;;;;4993051;28;20173;-48
2023/05/11 14:09:10;;;;;;;2.78;1.45;;;;;;;;;;4993959;28;20193;-48
2023/05/11 14:11:37;;;;;;;2.08;1.60;;;;;;;;;;4995756;28;20183;-48
2023/05/11 14:14:03;;;;;;;1.67;1.42;;;;;;;;;;4994394;28;20200;-48
2023/05/11 14:16:29;;;;;;;5.28;2.20;;;;;;;;;;4995347;28;20220;-48
2023/05/11 14:18:55;;;;;;;5.50;2.25;;;;;;;;;;4993619;28;20213;-48
2023/05/11 14:21:21;;;;;;;18.17;4.03;;;;;;;;;;4993028;28;20193;-48
2023/05/11 14:23:47;;;;;;;21.30;6.68;;;;;;;;;;4992319;28;20476;-48
2023/05/11 14:26:13;;;;;;;27.60;8.00;;;;;;;;;;4993467;28;20280;-48
2023/05/11 14:28:40;;;;;;;39.58;10.02;;;;;;;;;;4991514;28;20499;-48
2023/05/11 14:31:05;;;;;;;39.90;8.70;;;;;;;;;;4993600;28;20635;-48
2023/05/11 14:33:31;;;;;;;47.72;10.90;;;;;;;;;;4991920;28;20272;-48
2023/05/11 14:35:57;;;;;;;33.13;9.75;;;;;;;;;;4992880;28;20280;-48
2023/05/11 14:38:23;;;;;;;31.10;10.38;;;;;;;;;;4994150;28;20200;-48
2023/05/11 14:40:49;;;;;;;38.80;9.52;;;;;;;;;;4992904;28;20185;-48